sensor_id;sensor_type;location;lat;lon;timestamp;pressure;altitude;pressure_sealevel;temperature;humidity
62510;BME280;48558;48.242;11.654;2022-10-17T00:01:57;96854.75;;;10.62;100.00
62510;BME280;48558;48.242;11.654;2022-10-17T00:06:12;96856.56;;;10.56;100.00
62510;BME280;48558;48.242;11.654;2022-10-17T00:10:24;96856.81;;;10.49;100.00
62510;BME280;48558;48.242;11.654;2022-10-17T00:14:37;96868.75;;;10.46;100.00
62510;BME280;48558;48.242;11.654;2022-10-17T00:18:50;96864.09;;;10.43;100.00
62510;BME280;48558;48.242;11.654;2022-10-17T00:23:03;96854.69;;;10.53;100.00
62510;BME280;48558;48.242;11.654;2022-10-17T00:27:15;96857.22;;;10.47;100.00
62510;BME280;48558;48.242;11.654;2022-10-17T00:31:28;96856.84;;;10.36;100.00
62510;BME280;48558;48.242;11.654;2022-10-17T00:35:40;96860.63;;;10.30;100.00
62510;BME280;48558;48.242;11.654;2022-10-17T00:39:53;96871.34;;;10.28;100.00
62510;BME280;48558;48.242;11.654;2022-10-17T00:48:38;96869.59;;;10.21;100.00
62510;BME280;48558;48.242;11.654;2022-10-17T00:52:50;96877.75;;;10.25;100.00
62510;BME280;48558;48.242;11.654;2022-10-17T00:57:04;96882.22;;;10.22;100.00
62510;BME280;48558;48.242;11.654;2022-10-17T01:01:16;96877.44;;;10.23;100.00
62510;BME280;48558;48.242;11.654;2022-10-17T01:05:29;96882.44;;;10.15;100.00
62510;BME280;48558;48.242;11.654;2022-10-17T01:09:43;96887.72;;;10.09;100.00
62510;BME280;48558;48.242;11.654;2022-10-17T01:14:18;96875.56;;;10.07;100.00
62510;BME280;48558;48.242;11.654;2022-10-17T01:23:04;96863.75;;;10.06;100.00
62510;BME280;48558;48.242;11.654;2022-10-17T01:27:41;96860.00;;;10.00;100.00
62510;BME280;48558;48.242;11.654;2022-10-17T01:32:19;96865.66;;;9.97;100.00
62510;BME280;48558;48.242;11.654;2022-10-17T01:36:53;96869.75;;;9.92;100.00
62510;BME280;48558;48.242;11.654;2022-10-17T01:45:49;96872.84;;;9.94;100.00
62510;BME280;48558;48.242;11.654;2022-10-17T01:50:08;96875.94;;;9.96;100.00
62510;BME280;48558;48.242;11.654;2022-10-17T01:54:47;96874.47;;;10.04;100.00
62510;BME280;48558;48.242;11.654;2022-10-17T01:59:23;96883.13;;;9.94;100.00
62510;BME280;48558;48.242;11.654;2022-10-17T02:03:39;96860.47;;;9.86;100.00
62510;BME280;48558;48.242;11.654;2022-10-17T02:07:52;96867.66;;;9.84;100.00
62510;BME280;48558;48.242;11.654;2022-10-17T02:21:14;96854.75;;;9.68;100.00
62510;BME280;48558;48.242;11.654;2022-10-17T02:30:10;96860.41;;;9.65;100.00
62510;BME280;48558;48.242;11.654;2022-10-17T02:34:28;96862.19;;;9.59;100.00
62510;BME280;48558;48.242;11.654;2022-10-17T02:38:43;96862.94;;;9.59;100.00
62510;BME280;48558;48.242;11.654;2022-10-17T02:42:58;96856.88;;;9.64;100.00
62510;BME280;48558;48.242;11.654;2022-10-17T02:52:09;96870.69;;;9.52;100.00
62510;BME280;48558;48.242;11.654;2022-10-17T02:56:24;96873.88;;;9.50;100.00
62510;BME280;48558;48.242;11.654;2022-10-17T03:00:38;96873.22;;;9.46;100.00
62510;BME280;48558;48.242;11.654;2022-10-17T03:04:51;96874.00;;;9.47;100.00
62510;BME280;48558;48.242;11.654;2022-10-17T03:09:04;96872.00;;;9.47;100.00
62510;BME280;48558;48.242;11.654;2022-10-17T03:13:17;96876.84;;;9.43;100.00
62510;BME280;48558;48.242;11.654;2022-10-17T03:17:30;96890.41;;;9.50;100.00
62510;BME280;48558;48.242;11.654;2022-10-17T03:21:42;96881.38;;;9.50;100.00
62510;BME280;48558;48.242;11.654;2022-10-17T03:25:55;96882.47;;;9.52;100.00
62510;BME280;48558;48.242;11.654;2022-10-17T03:30:08;96883.91;;;9.44;100.00
62510;BME280;48558;48.242;11.654;2022-10-17T03:34:20;96887.22;;;9.39;100.00
62510;BME280;48558;48.242;11.654;2022-10-17T03:38:33;96890.09;;;9.48;100.00
62510;BME280;48558;48.242;11.654;2022-10-17T03:42:46;96895.81;;;9.41;100.00
62510;BME280;48558;48.242;11.654;2022-10-17T03:46:58;96887.44;;;9.32;100.00
62510;BME280;48558;48.242;11.654;2022-10-17T03:51:10;96873.44;;;9.26;100.00
62510;BME280;48558;48.242;11.654;2022-10-17T03:55:23;96884.66;;;9.19;100.00
62510;BME280;48558;48.242;11.654;2022-10-17T03:59:35;96885.53;;;9.16;100.00
62510;BME280;48558;48.242;11.654;2022-10-17T04:03:50;96880.13;;;9.13;100.00
62510;BME280;48558;48.242;11.654;2022-10-17T04:08:03;96885.75;;;9.09;100.00
62510;BME280;48558;48.242;11.654;2022-10-17T04:12:15;96899.97;;;9.08;100.00
62510;BME280;48558;48.242;11.654;2022-10-17T04:16:28;96901.06;;;8.98;100.00
62510;BME280;48558;48.242;11.654;2022-10-17T04:20:40;96904.69;;;8.95;100.00
62510;BME280;48558;48.242;11.654;2022-10-17T04:24:52;96911.97;;;8.89;100.00
62510;BME280;48558;48.242;11.654;2022-10-17T04:29:05;96908.94;;;8.83;100.00
62510;BME280;48558;48.242;11.654;2022-10-17T04:33:17;96912.03;;;8.85;100.00
62510;BME280;48558;48.242;11.654;2022-10-17T04:37:29;96910.78;;;8.74;100.00
62510;BME280;48558;48.242;11.654;2022-10-17T04:41:42;96910.72;;;8.77;100.00
62510;BME280;48558;48.242;11.654;2022-10-17T04:45:56;96906.41;;;8.76;100.00
62510;BME280;48558;48.242;11.654;2022-10-17T04:50:12;96923.44;;;8.71;100.00
62510;BME280;48558;48.242;11.654;2022-10-17T04:54:24;96923.13;;;8.69;100.00
62510;BME280;48558;48.242;11.654;2022-10-17T04:58:38;96935.25;;;8.72;100.00
62510;BME280;48558;48.242;11.654;2022-10-17T05:02:50;96932.69;;;8.64;100.00
62510;BME280;48558;48.242;11.654;2022-10-17T05:07:03;96923.50;;;8.55;100.00
62510;BME280;48558;48.242;11.654;2022-10-17T05:11:21;96936.94;;;8.53;100.00
62510;BME280;48558;48.242;11.654;2022-10-17T05:15:36;96935.97;;;8.59;100.00
62510;BME280;48558;48.242;11.654;2022-10-17T05:19:49;96929.63;;;8.46;100.00
62510;BME280;48558;48.242;11.654;2022-10-17T05:24:07;96931.25;;;8.44;100.00
62510;BME280;48558;48.242;11.654;2022-10-17T05:28:20;96945.03;;;8.44;100.00
62510;BME280;48558;48.242;11.654;2022-10-17T05:32:32;96945.13;;;8.40;100.00
62510;BME280;48558;48.242;11.654;2022-10-17T05:36:45;96951.75;;;8.43;100.00
62510;BME280;48558;48.242;11.654;2022-10-17T05:41:04;96954.59;;;8.39;100.00
62510;BME280;48558;48.242;11.654;2022-10-17T05:45:17;96958.72;;;8.47;100.00
62510;BME280;48558;48.242;11.654;2022-10-17T05:49:29;96958.41;;;8.45;100.00
62510;BME280;48558;48.242;11.654;2022-10-17T05:53:56;96964.56;;;8.49;100.00
62510;BME280;48558;48.242;11.654;2022-10-17T05:58:08;96960.69;;;8.47;100.00
62510;BME280;48558;48.242;11.654;2022-10-17T06:02:32;96973.06;;;8.55;100.00
62510;BME280;48558;48.242;11.654;2022-10-17T06:06:45;96973.84;;;8.55;100.00
62510;BME280;48558;48.242;11.654;2022-10-17T06:10:57;96990.53;;;8.64;100.00
62510;BME280;48558;48.242;11.654;2022-10-17T06:15:11;96990.13;;;8.66;100.00
62510;BME280;48558;48.242;11.654;2022-10-17T06:19:24;96987.09;;;8.77;100.00
62510;BME280;48558;48.242;11.654;2022-10-17T06:23:37;96985.78;;;8.81;100.00
62510;BME280;48558;48.242;11.654;2022-10-17T06:27:53;97000.16;;;8.89;100.00
62510;BME280;48558;48.242;11.654;2022-10-17T06:32:06;97003.59;;;8.93;100.00
62510;BME280;48558;48.242;11.654;2022-10-17T06:36:24;97000.09;;;9.05;100.00
62510;BME280;48558;48.242;11.654;2022-10-17T06:40:37;96996.06;;;9.22;100.00
62510;BME280;48558;48.242;11.654;2022-10-17T06:44:50;96980.97;;;9.26;100.00
62510;BME280;48558;48.242;11.654;2022-10-17T06:49:03;97005.31;;;9.57;100.00
62510;BME280;48558;48.242;11.654;2022-10-17T06:53:17;97006.56;;;9.81;100.00
62510;BME280;48558;48.242;11.654;2022-10-17T06:57:29;97009.78;;;9.92;100.00
62510;BME280;48558;48.242;11.654;2022-10-17T07:01:42;97010.53;;;10.05;100.00
62510;BME280;48558;48.242;11.654;2022-10-17T07:05:57;97025.25;;;10.27;100.00
62510;BME280;48558;48.242;11.654;2022-10-17T07:10:10;97030.31;;;10.54;100.00
62510;BME280;48558;48.242;11.654;2022-10-17T07:14:23;97029.41;;;10.69;100.00
62510;BME280;48558;48.242;11.654;2022-10-17T07:18:43;97033.09;;;10.88;100.00
62510;BME280;48558;48.242;11.654;2022-10-17T07:22:56;97034.19;;;11.25;100.00
62510;BME280;48558;48.242;11.654;2022-10-17T07:27:08;97045.16;;;11.50;100.00
62510;BME280;48558;48.242;11.654;2022-10-17T07:31:21;97053.78;;;11.74;100.00
62510;BME280;48558;48.242;11.654;2022-10-17T07:35:37;97051.59;;;11.90;100.00
62510;BME280;48558;48.242;11.654;2022-10-17T07:39:52;97061.72;;;12.15;100.00
62510;BME280;48558;48.242;11.654;2022-10-17T07:44:04;97067.28;;;12.55;100.00
62510;BME280;48558;48.242;11.654;2022-10-17T07:48:17;97068.88;;;12.74;100.00
62510;BME280;48558;48.242;11.654;2022-10-17T07:52:30;97069.97;;;12.85;100.00
62510;BME280;48558;48.242;11.654;2022-10-17T07:56:43;97076.22;;;13.26;100.00
62510;BME280;48558;48.242;11.654;2022-10-17T08:01:03;97073.16;;;13.42;100.00
62510;BME280;48558;48.242;11.654;2022-10-17T08:05:18;97076.22;;;13.62;100.00
62510;BME280;48558;48.242;11.654;2022-10-17T08:09:30;97067.56;;;13.87;100.00
62510;BME280;48558;48.242;11.654;2022-10-17T08:13:43;97053.31;;;14.12;100.00
62510;BME280;48558;48.242;11.654;2022-10-17T08:17:55;97064.78;;;14.47;100.00
62510;BME280;48558;48.242;11.654;2022-10-17T08:22:08;97068.63;;;14.82;100.00
62510;BME280;48558;48.242;11.654;2022-10-17T08:26:20;97073.50;;;14.96;100.00
62510;BME280;48558;48.242;11.654;2022-10-17T08:30:33;97082.56;;;15.30;100.00
62510;BME280;48558;48.242;11.654;2022-10-17T08:34:45;97073.31;;;15.47;100.00
62510;BME280;48558;48.242;11.654;2022-10-17T08:38:58;97071.66;;;15.79;100.00
62510;BME280;48558;48.242;11.654;2022-10-17T08:43:30;97063.81;;;16.21;100.00
62510;BME280;48558;48.242;11.654;2022-10-17T08:47:57;97059.81;;;16.42;100.00
62510;BME280;48558;48.242;11.654;2022-10-17T08:52:37;97063.09;;;16.70;100.00
62510;BME280;48558;48.242;11.654;2022-10-17T08:56:52;97066.13;;;16.87;100.00
62510;BME280;48558;48.242;11.654;2022-10-17T09:10:56;97067.13;;;18.41;100.00
62510;BME280;48558;48.242;11.654;2022-10-17T09:19:37;97067.69;;;19.19;100.00
62510;BME280;48558;48.242;11.654;2022-10-17T09:23:52;97064.75;;;19.39;100.00
62510;BME280;48558;48.242;11.654;2022-10-17T09:28:38;97073.75;;;19.60;100.00
62510;BME280;48558;48.242;11.654;2022-10-17T09:32:51;97088.41;;;20.02;100.00
62510;BME280;48558;48.242;11.654;2022-10-17T09:37:11;97074.69;;;20.27;100.00
62510;BME280;48558;48.242;11.654;2022-10-17T09:41:38;97087.75;;;20.63;100.00
62510;BME280;48558;48.242;11.654;2022-10-17T09:46:07;97082.91;;;20.41;96.69
62510;BME280;48558;48.242;11.654;2022-10-17T09:54:45;97076.50;;;20.63;94.22
62510;BME280;48558;48.242;11.654;2022-10-17T09:58:58;97084.44;;;20.76;86.15
62510;BME280;48558;48.242;11.654;2022-10-17T10:03:20;97096.41;;;21.09;87.92
62510;BME280;48558;48.242;11.654;2022-10-17T10:07:36;97095.84;;;21.38;83.53
62510;BME280;48558;48.242;11.654;2022-10-17T10:11:54;97095.06;;;21.43;83.11
62510;BME280;48558;48.242;11.654;2022-10-17T10:16:31;97101.75;;;21.29;78.74
62510;BME280;48558;48.242;11.654;2022-10-17T10:35:42;97102.94;;;23.14;69.63
62510;BME280;48558;48.242;11.654;2022-10-17T10:40:05;97097.41;;;23.75;64.31
62510;BME280;48558;48.242;11.654;2022-10-17T10:44:23;97094.31;;;23.79;60.51
62510;BME280;48558;48.242;11.654;2022-10-17T10:48:36;97090.34;;;23.87;67.07
62510;BME280;48558;48.242;11.654;2022-10-17T10:57:46;97091.34;;;24.46;58.76
62510;BME280;48558;48.242;11.654;2022-10-17T11:06:57;97058.31;;;24.54;62.09
62510;BME280;48558;48.242;11.654;2022-10-17T11:12:10;97057.72;;;24.10;50.89
62510;BME280;48558;48.242;11.654;2022-10-17T11:16:30;97079.31;;;24.27;53.00
62510;BME280;48558;48.242;11.654;2022-10-17T11:25:35;97087.09;;;24.20;51.96
62510;BME280;48558;48.242;11.654;2022-10-17T11:29:48;97064.22;;;24.56;50.82
62510;BME280;48558;48.242;11.654;2022-10-17T11:34:10;97081.88;;;24.75;53.74
62510;BME280;48558;48.242;11.654;2022-10-17T11:38:39;97079.09;;;25.46;56.79
62510;BME280;48558;48.242;11.654;2022-10-17T11:42:59;97074.56;;;24.98;54.59
62510;BME280;48558;48.242;11.654;2022-10-17T11:47:45;97075.78;;;26.07;60.09
62510;BME280;48558;48.242;11.654;2022-10-17T12:01:32;97072.16;;;26.07;48.25
62510;BME280;48558;48.242;11.654;2022-10-17T12:10:30;97066.44;;;25.21;44.97
62510;BME280;48558;48.242;11.654;2022-10-17T12:14:45;97068.03;;;25.95;50.71
62510;BME280;48558;48.242;11.654;2022-10-17T12:27:37;97053.56;;;25.98;43.72
62510;BME280;48558;48.242;11.654;2022-10-17T12:31:50;97054.47;;;26.27;45.00
62510;BME280;48558;48.242;11.654;2022-10-17T12:44:45;97044.00;;;27.46;43.36
62510;BME280;48558;48.242;11.654;2022-10-17T12:49:03;97047.97;;;27.43;44.76
62510;BME280;48558;48.242;11.654;2022-10-17T12:53:18;97041.22;;;27.53;43.62
62510;BME280;48558;48.242;11.654;2022-10-17T12:57:35;97044.69;;;27.67;45.17
62510;BME280;48558;48.242;11.654;2022-10-17T13:01:52;97057.72;;;26.85;49.00
62510;BME280;48558;48.242;11.654;2022-10-17T13:06:06;97047.72;;;26.30;43.56
62510;BME280;48558;48.242;11.654;2022-10-17T13:10:27;97046.16;;;25.95;45.46
62510;BME280;48558;48.242;11.654;2022-10-17T13:14:41;97036.31;;;26.22;44.88
62510;BME280;48558;48.242;11.654;2022-10-17T13:18:54;97031.72;;;26.19;43.88
62510;BME280;48558;48.242;11.654;2022-10-17T13:23:21;97032.50;;;26.07;44.01
62510;BME280;48558;48.242;11.654;2022-10-17T13:27:35;97037.81;;;26.23;42.87
62510;BME280;48558;48.242;11.654;2022-10-17T13:31:54;97032.72;;;26.09;46.07
62510;BME280;48558;48.242;11.654;2022-10-17T13:36:13;97038.16;;;26.20;46.45
62510;BME280;48558;48.242;11.654;2022-10-17T13:40:29;97030.00;;;25.56;45.31
62510;BME280;48558;48.242;11.654;2022-10-17T13:45:00;97036.31;;;25.10;47.40
62510;BME280;48558;48.242;11.654;2022-10-17T13:49:20;97041.31;;;25.30;46.54
62510;BME280;48558;48.242;11.654;2022-10-17T13:53:39;97024.78;;;25.47;51.51
62510;BME280;48558;48.242;11.654;2022-10-17T13:57:54;97035.53;;;25.49;46.07
62510;BME280;48558;48.242;11.654;2022-10-17T14:02:26;97031.69;;;25.86;53.50
62510;BME280;48558;48.242;11.654;2022-10-17T14:06:43;97038.59;;;25.64;48.67
62510;BME280;48558;48.242;11.654;2022-10-17T14:11:01;97038.59;;;25.12;48.03
62510;BME280;48558;48.242;11.654;2022-10-17T14:15:15;97042.91;;;25.00;49.11
62510;BME280;48558;48.242;11.654;2022-10-17T14:19:33;97042.69;;;25.11;46.49
62510;BME280;48558;48.242;11.654;2022-10-17T14:23:47;97043.53;;;24.92;49.20
62510;BME280;48558;48.242;11.654;2022-10-17T14:32:20;97045.13;;;24.75;50.46
62510;BME280;48558;48.242;11.654;2022-10-17T14:36:39;97042.88;;;24.55;50.68
62510;BME280;48558;48.242;11.654;2022-10-17T14:45:44;97059.00;;;24.09;47.91
62510;BME280;48558;48.242;11.654;2022-10-17T14:54:26;97051.03;;;23.71;50.91
62510;BME280;48558;48.242;11.654;2022-10-17T14:58:53;97051.50;;;23.56;49.71
62510;BME280;48558;48.242;11.654;2022-10-17T15:03:06;97068.56;;;23.45;51.67
62510;BME280;48558;48.242;11.654;2022-10-17T15:07:19;97067.06;;;23.14;53.03
62510;BME280;48558;48.242;11.654;2022-10-17T15:11:32;97055.97;;;22.98;53.40
62510;BME280;48558;48.242;11.654;2022-10-17T15:15:45;97059.69;;;22.81;55.65
62510;BME280;48558;48.242;11.654;2022-10-17T15:20:05;97061.34;;;22.36;61.21
62510;BME280;48558;48.242;11.654;2022-10-17T15:24:23;97071.22;;;22.13;62.33
62510;BME280;48558;48.242;11.654;2022-10-17T15:28:35;97067.31;;;21.75;67.79
62510;BME280;48558;48.242;11.654;2022-10-17T15:32:49;97073.34;;;21.38;73.85
62510;BME280;48558;48.242;11.654;2022-10-17T15:37:03;97070.31;;;21.03;78.68
62510;BME280;48558;48.242;11.654;2022-10-17T15:41:15;97075.47;;;20.71;84.67
62510;BME280;48558;48.242;11.654;2022-10-17T15:45:28;97084.41;;;20.26;94.42
62510;BME280;48558;48.242;11.654;2022-10-17T15:49:40;97079.69;;;19.84;100.00
62510;BME280;48558;48.242;11.654;2022-10-17T15:53:53;97083.38;;;19.42;100.00
62510;BME280;48558;48.242;11.654;2022-10-17T15:58:05;97092.06;;;19.07;100.00
62510;BME280;48558;48.242;11.654;2022-10-17T16:02:22;97099.16;;;18.66;100.00
62510;BME280;48558;48.242;11.654;2022-10-17T16:06:34;97095.00;;;18.30;100.00
62510;BME280;48558;48.242;11.654;2022-10-17T16:10:47;97104.91;;;18.00;100.00
62510;BME280;48558;48.242;11.654;2022-10-17T16:15:00;97110.72;;;17.76;100.00
62510;BME280;48558;48.242;11.654;2022-10-17T16:19:12;97116.34;;;17.56;100.00
62510;BME280;48558;48.242;11.654;2022-10-17T16:23:24;97114.97;;;17.32;100.00
62510;BME280;48558;48.242;11.654;2022-10-17T16:27:37;97113.03;;;17.03;100.00
62510;BME280;48558;48.242;11.654;2022-10-17T16:31:49;97124.38;;;16.79;100.00
62510;BME280;48558;48.242;11.654;2022-10-17T16:36:02;97122.09;;;16.63;100.00
62510;BME280;48558;48.242;11.654;2022-10-17T16:40:15;97128.22;;;16.38;100.00
62510;BME280;48558;48.242;11.654;2022-10-17T16:44:27;97128.91;;;16.18;100.00
62510;BME280;48558;48.242;11.654;2022-10-17T16:48:41;97123.66;;;15.97;100.00
62510;BME280;48558;48.242;11.654;2022-10-17T16:52:53;97126.31;;;15.76;100.00
62510;BME280;48558;48.242;11.654;2022-10-17T16:57:06;97130.31;;;15.61;100.00
62510;BME280;48558;48.242;11.654;2022-10-17T17:01:20;97139.53;;;15.52;100.00
62510;BME280;48558;48.242;11.654;2022-10-17T17:05:34;97139.31;;;15.32;100.00
62510;BME280;48558;48.242;11.654;2022-10-17T17:09:46;97146.22;;;15.13;100.00
62510;BME280;48558;48.242;11.654;2022-10-17T17:13:59;97160.19;;;15.04;100.00
62510;BME280;48558;48.242;11.654;2022-10-17T17:18:12;97159.00;;;14.96;100.00
62510;BME280;48558;48.242;11.654;2022-10-17T17:22:30;97160.91;;;14.90;100.00
62510;BME280;48558;48.242;11.654;2022-10-17T17:26:43;97164.47;;;14.81;100.00
62510;BME280;48558;48.242;11.654;2022-10-17T17:30:55;97168.41;;;14.66;100.00
62510;BME280;48558;48.242;11.654;2022-10-17T17:35:08;97169.22;;;14.48;100.00
62510;BME280;48558;48.242;11.654;2022-10-17T17:39:21;97182.38;;;14.38;100.00
62510;BME280;48558;48.242;11.654;2022-10-17T17:43:35;97173.41;;;14.25;100.00
62510;BME280;48558;48.242;11.654;2022-10-17T17:47:48;97184.41;;;14.20;100.00
62510;BME280;48558;48.242;11.654;2022-10-17T17:52:00;97193.06;;;14.13;100.00
62510;BME280;48558;48.242;11.654;2022-10-17T17:56:20;97182.38;;;14.02;100.00
62510;BME280;48558;48.242;11.654;2022-10-17T18:00:34;97183.94;;;13.94;100.00
62510;BME280;48558;48.242;11.654;2022-10-17T18:04:47;97185.16;;;13.84;100.00
62510;BME280;48558;48.242;11.654;2022-10-17T18:09:03;97179.31;;;13.73;100.00
62510;BME280;48558;48.242;11.654;2022-10-17T18:13:15;97183.00;;;13.61;100.00
62510;BME280;48558;48.242;11.654;2022-10-17T18:17:28;97188.25;;;13.50;100.00
62510;BME280;48558;48.242;11.654;2022-10-17T18:21:41;97176.47;;;13.37;100.00
62510;BME280;48558;48.242;11.654;2022-10-17T18:25:57;97187.75;;;13.33;100.00
62510;BME280;48558;48.242;11.654;2022-10-17T18:30:12;97188.81;;;13.27;100.00
62510;BME280;48558;48.242;11.654;2022-10-17T18:34:27;97190.63;;;13.21;100.00
62510;BME280;48558;48.242;11.654;2022-10-17T18:38:41;97187.38;;;13.13;100.00
62510;BME280;48558;48.242;11.654;2022-10-17T18:42:54;97184.13;;;13.06;100.00
62510;BME280;48558;48.242;11.654;2022-10-17T18:47:06;97199.97;;;13.05;100.00
62510;BME280;48558;48.242;11.654;2022-10-17T18:51:22;97191.78;;;13.02;100.00
62510;BME280;48558;48.242;11.654;2022-10-17T18:55:40;97188.66;;;12.90;100.00
62510;BME280;48558;48.242;11.654;2022-10-17T18:59:53;97195.28;;;12.84;100.00
62510;BME280;48558;48.242;11.654;2022-10-17T19:04:05;97186.31;;;12.80;100.00
62510;BME280;48558;48.242;11.654;2022-10-17T19:08:22;97200.63;;;12.78;100.00
62510;BME280;48558;48.242;11.654;2022-10-17T19:12:34;97197.38;;;12.71;100.00
62510;BME280;48558;48.242;11.654;2022-10-17T19:16:48;97198.91;;;12.72;100.00
62510;BME280;48558;48.242;11.654;2022-10-17T19:21:04;97197.81;;;12.69;100.00
62510;BME280;48558;48.242;11.654;2022-10-17T19:25:17;97200.22;;;12.58;100.00
62510;BME280;48558;48.242;11.654;2022-10-17T19:29:30;97196.75;;;12.45;100.00
62510;BME280;48558;48.242;11.654;2022-10-17T19:33:43;97191.63;;;12.35;100.00
62510;BME280;48558;48.242;11.654;2022-10-17T19:38:05;97204.19;;;12.48;100.00
62510;BME280;48558;48.242;11.654;2022-10-17T19:42:26;97196.50;;;12.52;100.00
62510;BME280;48558;48.242;11.654;2022-10-17T19:46:40;97198.59;;;12.39;100.00
62510;BME280;48558;48.242;11.654;2022-10-17T19:50:53;97203.03;;;12.37;100.00
62510;BME280;48558;48.242;11.654;2022-10-17T19:55:06;97199.47;;;12.36;100.00
62510;BME280;48558;48.242;11.654;2022-10-17T19:59:19;97202.31;;;12.23;100.00
62510;BME280;48558;48.242;11.654;2022-10-17T20:03:32;97207.09;;;12.23;100.00
62510;BME280;48558;48.242;11.654;2022-10-17T20:07:44;97198.25;;;12.15;100.00
62510;BME280;48558;48.242;11.654;2022-10-17T20:11:57;97214.69;;;12.10;100.00
62510;BME280;48558;48.242;11.654;2022-10-17T20:16:12;97208.81;;;12.08;100.00
62510;BME280;48558;48.242;11.654;2022-10-17T20:20:24;97218.69;;;12.09;100.00
62510;BME280;48558;48.242;11.654;2022-10-17T20:24:37;97225.75;;;12.10;100.00
62510;BME280;48558;48.242;11.654;2022-10-17T20:28:49;97224.78;;;12.04;100.00
62510;BME280;48558;48.242;11.654;2022-10-17T20:33:02;97227.50;;;11.95;100.00
62510;BME280;48558;48.242;11.654;2022-10-17T20:37:14;97223.88;;;11.85;100.00
62510;BME280;48558;48.242;11.654;2022-10-17T20:41:27;97219.75;;;11.90;100.00
62510;BME280;48558;48.242;11.654;2022-10-17T20:45:41;97219.00;;;11.89;100.00
62510;BME280;48558;48.242;11.654;2022-10-17T20:50:03;97235.16;;;11.91;100.00
62510;BME280;48558;48.242;11.654;2022-10-17T20:54:15;97230.00;;;11.80;100.00
62510;BME280;48558;48.242;11.654;2022-10-17T20:58:28;97230.09;;;11.77;100.00
62510;BME280;48558;48.242;11.654;2022-10-17T21:02:40;97232.09;;;11.76;100.00
62510;BME280;48558;48.242;11.654;2022-10-17T21:06:52;97238.09;;;11.75;100.00
62510;BME280;48558;48.242;11.654;2022-10-17T21:11:12;97233.34;;;11.75;100.00
62510;BME280;48558;48.242;11.654;2022-10-17T21:15:25;97220.94;;;11.67;100.00
62510;BME280;48558;48.242;11.654;2022-10-17T21:19:38;97212.41;;;11.62;100.00
62510;BME280;48558;48.242;11.654;2022-10-17T21:23:51;97221.50;;;11.62;100.00
62510;BME280;48558;48.242;11.654;2022-10-17T21:28:04;97224.38;;;11.59;100.00
62510;BME280;48558;48.242;11.654;2022-10-17T21:32:16;97227.03;;;11.49;100.00
62510;BME280;48558;48.242;11.654;2022-10-17T21:36:49;97222.06;;;11.44;100.00
62510;BME280;48558;48.242;11.654;2022-10-17T21:41:06;97216.78;;;11.37;100.00
62510;BME280;48558;48.242;11.654;2022-10-17T21:45:19;97223.66;;;11.33;100.00
62510;BME280;48558;48.242;11.654;2022-10-17T21:49:36;97225.53;;;11.36;100.00
62510;BME280;48558;48.242;11.654;2022-10-17T21:53:50;97231.06;;;11.36;100.00
62510;BME280;48558;48.242;11.654;2022-10-17T21:58:03;97220.53;;;11.31;100.00
62510;BME280;48558;48.242;11.654;2022-10-17T22:02:16;97211.03;;;11.32;100.00
62510;BME280;48558;48.242;11.654;2022-10-17T22:06:30;97214.59;;;11.32;100.00
62510;BME280;48558;48.242;11.654;2022-10-17T22:10:51;97215.91;;;11.28;100.00
62510;BME280;48558;48.242;11.654;2022-10-17T22:15:03;97215.50;;;11.17;100.00
62510;BME280;48558;48.242;11.654;2022-10-17T22:19:20;97229.41;;;11.13;100.00
62510;BME280;48558;48.242;11.654;2022-10-17T22:23:44;97235.19;;;11.19;100.00
62510;BME280;48558;48.242;11.654;2022-10-17T22:27:56;97220.66;;;11.27;100.00
62510;BME280;48558;48.242;11.654;2022-10-17T22:32:09;97224.34;;;11.12;100.00
62510;BME280;48558;48.242;11.654;2022-10-17T22:36:22;97227.22;;;11.21;100.00
62510;BME280;48558;48.242;11.654;2022-10-17T22:40:36;97229.66;;;11.19;100.00
62510;BME280;48558;48.242;11.654;2022-10-17T22:44:49;97232.19;;;11.13;100.00
62510;BME280;48558;48.242;11.654;2022-10-17T22:49:01;97234.84;;;11.04;100.00
62510;BME280;48558;48.242;11.654;2022-10-17T22:53:15;97229.44;;;11.01;100.00
62510;BME280;48558;48.242;11.654;2022-10-17T22:57:34;97233.41;;;11.00;100.00
62510;BME280;48558;48.242;11.654;2022-10-17T23:01:46;97232.75;;;10.96;100.00
62510;BME280;48558;48.242;11.654;2022-10-17T23:05:59;97236.50;;;10.89;100.00
62510;BME280;48558;48.242;11.654;2022-10-17T23:10:11;97234.63;;;10.86;100.00
62510;BME280;48558;48.242;11.654;2022-10-17T23:14:24;97230.00;;;10.83;100.00
62510;BME280;48558;48.242;11.654;2022-10-17T23:18:37;97222.25;;;10.78;100.00
62510;BME280;48558;48.242;11.654;2022-10-17T23:22:49;97224.00;;;10.72;100.00
62510;BME280;48558;48.242;11.654;2022-10-17T23:27:01;97226.09;;;10.68;100.00
62510;BME280;48558;48.242;11.654;2022-10-17T23:31:18;97226.75;;;10.59;100.00
62510;BME280;48558;48.242;11.654;2022-10-17T23:35:32;97215.03;;;10.55;100.00
62510;BME280;48558;48.242;11.654;2022-10-17T23:39:44;97213.47;;;10.54;100.00
62510;BME280;48558;48.242;11.654;2022-10-17T23:43:57;97228.94;;;10.52;100.00
62510;BME280;48558;48.242;11.654;2022-10-17T23:48:09;97216.03;;;10.49;100.00
62510;BME280;48558;48.242;11.654;2022-10-17T23:52:21;97213.59;;;10.51;100.00
62510;BME280;48558;48.242;11.654;2022-10-17T23:56:34;97208.59;;;10.46;100.00
